NORTHERN NASSAU  -  Coastal Flood Statement Coastal Flood Statement        SOUTHERN NASSAU  -  Coastal Flood Statement Coastal Flood Statement      

Active alerts

Northern Nassau
  Details for Northern Nassau Coastal Flood Statement
Southern Nassau
  Details for Southern Nassau Coastal Flood Statement


WXM80 ListenWXM80 Stop

You find our weather info also at:

UK Metoffice

WeatherCloud

Weather Underground

Northeastern Weather Network

AWEKAS

Citizen Weather Observer Program (CWOP)

HAMweather, WeatherForYou, PWS Weather


Weather Underground History page Text

Daily Summary for September 22, 2016 Units:  English    Metric   Both
« Previous Day
Next Day »
Daily Weekly Monthly Yearly Custom
  High: Low: Average:
Temperature: 81.8 °F 61.7 °F 69.7 °F
Dew Point: 68.8 °F 54.4 °F 63 °F
Humidity: 97 % 61 % 80 %
Wind Speed: 5.4 mph 0.0 mph 0.6 mph
Wind Gust: 8.1 mph - -
Wind:- - ENE
Pressure: 30.17 in 30.05 in -
Precipitation: 0.00 in    
Historical Graphs
 
 
Tabular Data for September 22, 2016
Time Temperature Dew Point Pressure Wind Wind Speed Wind Gust Humidity Rainfall Rate (Hourly)
00:01 65.3 °F 62.6 °F 30.14 in Calm   1.2 mph 91 % 0.00 in
00:06 65.2 °F 62.8 °F 30.14 in Calm     92 % 0.00 in
00:11 65.2 °F 62.8 °F 30.14 in Calm     92 % 0.00 in
00:16 65.0 °F 62.6 °F 30.14 in Calm     92 % 0.00 in
00:21 65.0 °F 62.6 °F 30.14 in Calm     92 % 0.00 in
00:26 65.0 °F 62.6 °F 30.14 in Calm     92 % 0.00 in
00:31 64.9 °F 62.5 °F 30.14 in Calm     92 % 0.00 in
00:36 64.9 °F 62.8 °F 30.14 in Calm     93 % 0.00 in
00:41 64.8 °F 62.7 °F 30.13 in Calm     93 % 0.00 in
00:47 64.8 °F 62.7 °F 30.13 in Calm     93 % 0.00 in
00:52 64.7 °F 62.6 °F 30.13 in Calm     93 % 0.00 in
00:57 64.7 °F 62.6 °F 30.13 in Calm     93 % 0.00 in
01:02 64.6 °F 62.5 °F 30.12 in Calm     93 % 0.00 in
01:07 64.5 °F 62.4 °F 30.12 in Calm     93 % 0.00 in
01:12 64.5 °F 62.4 °F 30.12 in Calm     93 % 0.00 in
01:17 64.4 °F 62.3 °F 30.12 in Calm     93 % 0.00 in
01:22 64.3 °F 61.9 °F 30.12 in Calm     92 % 0.00 in
01:27 64.2 °F 61.8 °F 30.12 in Calm     92 % 0.00 in
01:32 64.1 °F 62.0 °F 30.12 in Calm     93 % 0.00 in
01:37 64.1 °F 62.0 °F 30.13 in Calm     93 % 0.00 in
01:42 64.1 °F 62.0 °F 30.12 in Calm   1.0 mph 93 % 0.00 in
01:48 64.0 °F 61.9 °F 30.12 in Calm     93 % 0.00 in
01:53 64.0 °F 61.9 °F 30.12 in Calm     93 % 0.00 in
01:58 63.9 °F 61.8 °F 30.12 in Calm     93 % 0.00 in
02:03 63.9 °F 61.8 °F 30.12 in Calm     93 % 0.00 in
02:08 63.8 °F 61.7 °F 30.12 in Calm     93 % 0.00 in
02:23 63.7 °F 61.9 °F 30.12 in Calm     94 % 0.00 in
02:28 63.7 °F 61.9 °F 30.11 in Calm     94 % 0.00 in
02:33 63.7 °F 61.9 °F 30.12 in Calm     94 % 0.00 in
02:39 63.6 °F 61.8 °F 30.12 in Calm     94 % 0.00 in
02:44 63.5 °F 61.7 °F 30.12 in Calm     94 % 0.00 in
02:49 63.5 °F 61.7 °F 30.12 in Calm     94 % 0.00 in
02:54 63.5 °F 61.7 °F 30.12 in NE 0.3 mph 1.2 mph 94 % 0.00 in
02:59 63.5 °F 61.7 °F 30.12 in Calm   2.3 mph 94 % 0.00 in
03:04 63.6 °F 62.1 °F 30.12 in NE 0.1 mph 1.0 mph 95 % 0.00 in
03:09 63.6 °F 62.1 °F 30.12 in NNE 1.2 mph 2.3 mph 95 % 0.00 in
03:14 63.7 °F 62.2 °F 30.12 in Calm     95 % 0.00 in
03:19 63.7 °F 62.2 °F 30.12 in Calm     95 % 0.00 in
03:24 63.7 °F 62.2 °F 30.13 in Calm     95 % 0.00 in
03:35 63.8 °F 62.3 °F 30.13 in NNE 0.2 mph 3.5 mph 95 % 0.00 in
03:40 63.9 °F 62.4 °F 30.12 in Calm     95 % 0.00 in
03:45 63.9 °F 62.4 °F 30.12 in Calm     95 % 0.00 in
03:50 63.8 °F 62.3 °F 30.13 in Calm     95 % 0.00 in
03:55 63.8 °F 62.0 °F 30.13 in Calm     94 % 0.00 in
04:00 63.8 °F 62.0 °F 30.13 in Calm     94 % 0.00 in
04:05 63.7 °F 61.9 °F 30.13 in Calm     94 % 0.00 in
04:10 63.7 °F 61.9 °F 30.13 in Calm     94 % 0.00 in
04:15 63.7 °F 61.9 °F 30.13 in NNE 0.6 mph   94 % 0.00 in
04:21 63.7 °F 61.9 °F 30.13 in Calm     94 % 0.00 in
04:25 63.6 °F 61.6 °F 30.12 in Calm     93 % 0.00 in
04:30 63.6 °F 61.5 °F 30.13 in Calm     93 % 0.00 in
04:35 63.7 °F 61.6 °F 30.13 in Calm     93 % 0.00 in
04:41 63.6 °F 61.5 °F 30.12 in Calm     93 % 0.00 in
04:45 63.6 °F 61.5 °F 30.12 in Calm     93 % 0.00 in
04:51 63.5 °F 61.4 °F 30.12 in Calm   1.2 mph 93 % 0.00 in
04:56 63.5 °F 61.4 °F 30.12 in Calm     93 % 0.00 in
05:01 63.4 °F 61.3 °F 30.12 in Calm     93 % 0.00 in
05:06 63.4 °F 61.3 °F 30.12 in Calm     93 % 0.00 in
05:11 63.4 °F 61.3 °F 30.12 in Calm   1.0 mph 93 % 0.00 in
05:16 63.3 °F 61.2 °F 30.12 in Calm     93 % 0.00 in
05:21 63.3 °F 61.2 °F 30.12 in Calm     93 % 0.00 in
05:26 63.3 °F 61.2 °F 30.12 in Calm     93 % 0.00 in
05:36 63.2 °F 61.1 °F 30.12 in Calm     93 % 0.00 in
05:42 63.2 °F 61.1 °F 30.12 in Calm     93 % 0.00 in
05:47 63.1 °F 61.0 °F 30.12 in Calm     93 % 0.00 in
05:57 63.0 °F 60.6 °F 30.13 in NNE 0.9 mph 2.3 mph 92 % 0.00 in
06:02 63.0 °F 60.6 °F 30.12 in Calm     92 % 0.00 in
06:07 62.9 °F 60.8 °F 30.12 in Calm     93 % 0.00 in
06:12 62.9 °F 60.8 °F 30.13 in NNE 0.3 mph 1.2 mph 93 % 0.00 in
06:17 62.9 °F 60.8 °F 30.13 in Calm   2.3 mph 93 % 0.00 in
06:22 62.9 °F 60.8 °F 30.13 in Calm     93 % 0.00 in
06:27 62.7 °F 60.3 °F 30.12 in Calm     92 % 0.00 in
06:33 62.6 °F 60.2 °F 30.13 in Calm     92 % 0.00 in
06:38 62.5 °F 60.1 °F 30.13 in Calm     92 % 0.00 in
06:43 62.4 °F 60.0 °F 30.13 in Calm     92 % 0.00 in
06:48 62.3 °F 59.9 °F 30.13 in Calm     92 % 0.00 in
06:53 62.3 °F 59.9 °F 30.13 in Calm     92 % 0.00 in
06:58 62.2 °F 59.8 °F 30.13 in Calm     92 % 0.00 in
07:03 62.1 °F 59.7 °F 30.13 in Calm     92 % 0.00 in
07:08 62.0 °F 59.6 °F 30.13 in Calm     92 % 0.00 in
07:13 61.9 °F 59.5 °F 30.13 in Calm     92 % 0.00 in
07:18 61.8 °F 59.5 °F 30.12 in Calm     92 % 0.00 in
07:24 61.8 °F 59.8 °F 30.13 in Calm     93 % 0.00 in
07:29 61.7 °F 59.7 °F 30.13 in Calm     93 % 0.00 in
07:34 61.8 °F 59.8 °F 30.13 in Calm     93 % 0.00 in
07:39 61.8 °F 60.1 °F 30.13 in Calm     94 % 0.00 in
07:44 61.9 °F 60.2 °F 30.14 in Calm     94 % 0.00 in
07:49 62.0 °F 60.6 °F 30.13 in Calm     95 % 0.00 in
07:59 62.4 °F 61.2 °F 30.13 in Calm     96 % 0.00 in
08:04 62.6 °F 61.4 °F 30.13 in NNE 0.8 mph 2.0 mph 96 % 0.00 in
08:10 62.9 °F 61.7 °F 30.13 in Calm     96 % 0.00 in
08:15 63.2 °F 62.0 °F 30.13 in North 0.4 mph 2.3 mph 96 % 0.00 in
08:20 63.6 °F 62.4 °F 30.13 in NNW 0.8 mph 3.5 mph 96 % 0.00 in
08:25 63.9 °F 63.0 °F 30.13 in ENE 0.4 mph 2.3 mph 97 % 0.00 in
08:30 64.2 °F 63.0 °F 30.13 in NE 0.1 mph 1.2 mph 96 % 0.00 in
08:35 64.4 °F 63.2 °F 30.14 in NE 0.5 mph 1.2 mph 96 % 0.00 in
08:40 64.6 °F 63.4 °F 30.14 in ENE 0.8 mph 3.5 mph 96 % 0.00 in
08:45 64.9 °F 63.4 °F 30.14 in ENE 0.4 mph 1.2 mph 95 % 0.00 in
08:50 65.2 °F 63.4 °F 30.14 in NE 2.3 mph 3.5 mph 94 % 0.00 in
08:55 65.6 °F 63.5 °F 30.14 in ENE 1.3 mph 3.5 mph 93 % 0.00 in
09:00 66.1 °F 63.4 °F 30.15 in ENE 0.9 mph 2.3 mph 91 % 0.00 in
09:05 66.5 °F 63.2 °F 30.15 in ENE 1.3 mph 3.5 mph 89 % 0.00 in
09:11 67.0 °F 63.0 °F 30.15 in ENE 1.0 mph 3.0 mph 87 % 0.00 in
09:16 67.5 °F 63.5 °F 30.15 in ENE 0.6 mph 2.3 mph 87 % 0.00 in
09:21 67.9 °F 63.2 °F 30.15 in ENE 1.0 mph 2.0 mph 85 % 0.00 in
09:26 68.2 °F 62.9 °F 30.15 in ENE 1.0 mph 2.0 mph 83 % 0.00 in
09:31 68.6 °F 63.6 °F 30.15 in ENE 0.7 mph 1.2 mph 84 % 0.00 in
09:36 68.8 °F 63.1 °F 30.15 in ENE 1.5 mph 3.5 mph 82 % 0.00 in
09:41 69.0 °F 62.9 °F 30.15 in ENE 1.6 mph 3.5 mph 81 % 0.00 in
09:46 69.3 °F 63.2 °F 30.15 in ENE 1.1 mph 3.5 mph 81 % 0.00 in
09:51 69.6 °F 63.9 °F 30.16 in ENE 0.8 mph 2.3 mph 82 % 0.00 in
09:56 69.8 °F 63.7 °F 30.16 in ENE 0.1 mph 1.2 mph 81 % 0.00 in
10:01 70.0 °F 63.5 °F 30.15 in ENE 0.3 mph 1.2 mph 80 % 0.00 in
10:06 70.2 °F 63.7 °F 30.16 in East 1.1 mph 2.3 mph 80 % 0.00 in
10:11 70.4 °F 63.9 °F 30.16 in ENE 1.2 mph 4.6 mph 80 % 0.00 in
10:21 71.1 °F 64.3 °F 30.16 in ENE 2.9 mph 4.0 mph 79 % 0.00 in
10:32 71.7 °F 64.1 °F 30.17 in ENE 1.7 mph 1.7 mph 77 % 0.00 in
10:42 72.2 °F 64.6 °F 30.16 in North 2.5 mph 3.5 mph 77 % 0.00 in
10:47 72.3 °F 63.9 °F 30.16 in North 1.4 mph 4.0 mph 75 % 0.00 in
10:52 72.4 °F 64.0 °F 30.16 in NE 2.2 mph 4.6 mph 75 % 0.00 in
10:57 72.5 °F 64.5 °F 30.16 in North 3.4 mph 6.0 mph 76 % 0.00 in
11:02 72.7 °F 65.1 °F 30.16 in NNE 5.4 mph 8.1 mph 77 % 0.00 in
11:07 73.0 °F 65.0 °F 30.15 in ENE 3.0 mph 3.5 mph 76 % 0.00 in
11:12 73.5 °F 65.1 °F 30.15 in NNE 1.6 mph 3.5 mph 75 % 0.00 in
11:17 74.4 °F 64.8 °F 30.15 in NNE 2.3 mph 3.5 mph 72 % 0.00 in
11:22 75.4 °F 65.3 °F 30.15 in ENE 1.7 mph 3.5 mph 71 % 0.00 in
11:27 76.3 °F 65.8 °F 30.15 in North 1.9 mph 3.0 mph 70 % 0.00 in
11:32 77.3 °F 66.3 °F 30.14 in NE 1.8 mph 4.6 mph 69 % 0.00 in
11:38 78.2 °F 66.8 °F 30.14 in NE 1.7 mph 3.5 mph 68 % 0.00 in
11:43 79.0 °F 67.1 °F 30.14 in NE 3.0 mph 4.6 mph 67 % 0.00 in
11:48 79.8 °F 67.0 °F 30.14 in NNE 0.9 mph 3.0 mph 65 % 0.00 in
11:53 80.6 °F 67.3 °F 30.14 in NNE 1.7 mph 3.0 mph 64 % 0.00 in
11:58 81.2 °F 67.9 °F 30.14 in ENE 2.6 mph 3.5 mph 64 % 0.00 in
12:03 81.3 °F 67.0 °F 30.13 in North 3.7 mph 6.0 mph 62 % 0.00 in
12:08 81.4 °F 67.1 °F 30.14 in NNE 1.4 mph 3.5 mph 62 % 0.00 in
12:13 81.6 °F 67.3 °F 30.14 in North 1.5 mph 6.9 mph 62 % 0.00 in
12:18 81.8 °F 67.5 °F 30.14 in NE 3.4 mph 3.5 mph 62 % 0.00 in
12:23 81.6 °F 67.8 °F 30.13 in NE 2.3 mph 4.0 mph 63 % 0.00 in
12:28 81.6 °F 67.8 °F 30.13 in ENE 2.0 mph 3.5 mph 63 % 0.00 in
12:34 81.5 °F 67.2 °F 30.13 in NNW 1.7 mph 3.5 mph 62 % 0.00 in
12:39 81.6 °F 67.3 °F 30.13 in North 1.1 mph 4.6 mph 62 % 0.00 in
12:44 81.7 °F 67.4 °F 30.12 in ENE 2.3 mph 5.0 mph 62 % 0.00 in
12:49 81.8 °F 67.0 °F 30.12 in North 3.4 mph 5.8 mph 61 % 0.00 in
13:04 81.4 °F 67.6 °F 30.12 in ENE 2.2 mph 6.9 mph 63 % 0.00 in
13:09 81.0 °F 67.7 °F 30.12 in ENE 2.7 mph 5.8 mph 64 % 0.00 in
13:14 80.7 °F 67.4 °F 30.11 in NE 2.4 mph 6.9 mph 64 % 0.00 in
13:19 80.7 °F 67.4 °F 30.12 in NE 3.4 mph 4.6 mph 64 % 0.00 in
13:24 80.8 °F 68.8 °F 30.12 in NNE 1.2 mph 4.0 mph 67 % 0.00 in
13:29 81.0 °F 67.7 °F 30.11 in ENE 0.6 mph 3.0 mph 64 % 0.00 in
13:34 80.9 °F 67.1 °F 30.11 in NE 3.9 mph 5.8 mph 63 % 0.00 in
13:40 80.7 °F 67.8 °F 30.11 in East 1.6 mph 3.5 mph 65 % 0.00 in
13:45 80.8 °F 67.0 °F 30.11 in ENE 1.5 mph 4.6 mph 63 % 0.00 in
13:50 80.8 °F 67.0 °F 30.11 in ENE 3.2 mph 4.6 mph 63 % 0.00 in
13:55 80.6 °F 66.8 °F 30.10 in East 4.4 mph 6.9 mph 63 % 0.00 in
14:00 80.1 °F 66.8 °F 30.10 in ENE 2.4 mph 3.5 mph 64 % 0.00 in
14:05 80.2 °F 66.9 °F 30.10 in ENE 2.0 mph 3.5 mph 64 % 0.00 in
14:11 80.1 °F 66.9 °F 30.10 in NE 2.0 mph 7.0 mph 64 % 0.00 in
14:16 80.2 °F 67.8 °F 30.09 in NE 1.0 mph 4.0 mph 66 % 0.00 in
14:21 80.3 °F 67.0 °F 30.09 in ENE 2.0 mph 7.0 mph 64 % 0.00 in
14:26 80.2 °F 67.4 °F 30.09 in ENE 3.0 mph 7.0 mph 65 % 0.00 in
14:31 79.8 °F 66.5 °F 30.09 in ENE 2.0 mph 7.0 mph 64 % 0.00 in
14:36 79.9 °F 68.0 °F 30.09 in NE 1.0 mph 5.0 mph 67 % 0.00 in
14:41 80.2 °F 68.2 °F 30.09 in Calm   4.0 mph 67 % 0.00 in
14:46 80.4 °F 67.1 °F 30.09 in ENE 3.0 mph 7.0 mph 64 % 0.00 in
14:51 80.3 °F 67.5 °F 30.09 in ENE 0.1 mph 2.3 mph 65 % 0.00 in
14:56 80.5 °F 67.6 °F 30.09 in Calm   4.0 mph 65 % 0.00 in
15:01 80.6 °F 66.8 °F 30.09 in ENE 0.1 mph 1.2 mph 63 % 0.00 in
15:06 80.7 °F 67.4 °F 30.09 in East 1.2 mph 3.5 mph 64 % 0.00 in
15:11 80.3 °F 67.0 °F 30.09 in NE 1.4 mph 4.6 mph 64 % 0.00 in
15:16 80.1 °F 67.3 °F 30.09 in NE 0.6 mph 2.3 mph 65 % 0.00 in
15:21 80.0 °F 67.2 °F 30.09 in ENE 0.8 mph 3.5 mph 65 % 0.00 in
15:26 80.0 °F 68.1 °F 30.08 in NE 1.1 mph 3.5 mph 67 % 0.00 in
15:31 79.8 °F 67.9 °F 30.08 in ENE 0.5 mph 2.3 mph 67 % 0.00 in
15:36 79.8 °F 67.4 °F 30.08 in ENE 1.6 mph 3.5 mph 66 % 0.00 in
15:41 79.8 °F 68.3 °F 30.08 in ENE 0.8 mph 1.2 mph 68 % 0.00 in
15:52 79.6 °F 67.7 °F 30.08 in NE 0.5 mph 2.3 mph 67 % 0.00 in
15:57 79.5 °F 68.0 °F 30.08 in NE 0.5 mph 1.2 mph 68 % 0.00 in
16:02 79.3 °F 67.8 °F 30.08 in NE 0.5 mph 1.2 mph 68 % 0.00 in
16:07 79.1 °F 67.6 °F 30.08 in ESE 0.7 mph 2.3 mph 68 % 0.00 in
16:12 79.0 °F 67.5 °F 30.08 in NE 0.9 mph 2.3 mph 68 % 0.00 in
16:17 78.9 °F 67.4 °F 30.08 in NE 0.4 mph 2.3 mph 68 % 0.00 in
16:22 78.8 °F 67.3 °F 30.08 in NE 0.7 mph 2.3 mph 68 % 0.00 in
16:27 78.6 °F 67.6 °F 30.08 in NE 0.6 mph 1.2 mph 69 % 0.00 in
16:37 78.4 °F 67.8 °F 30.08 in NE 0.5 mph 1.2 mph 70 % 0.00 in
16:42 78.3 °F 66.9 °F 30.08 in NE 0.6 mph 1.2 mph 68 % 0.00 in
16:48 78.2 °F 67.2 °F 30.08 in NE 0.3 mph 1.2 mph 69 % 0.00 in
16:53 77.9 °F 67.3 °F 30.07 in NE 0.3 mph 1.2 mph 70 % 0.00 in
16:58 77.6 °F 67.0 °F 30.07 in NE 0.3 mph 1.2 mph 70 % 0.00 in
17:03 77.3 °F 67.2 °F 30.07 in NE 0.4 mph 1.2 mph 71 % 0.00 in
17:08 77.0 °F 67.7 °F 30.07 in NE 0.1 mph 1.2 mph 73 % 0.00 in
17:13 76.7 °F 67.4 °F 30.07 in NE 0.3 mph 1.2 mph 73 % 0.00 in
17:19 76.6 °F 67.7 °F 30.07 in NE 0.2 mph 1.2 mph 74 % 0.00 in
17:24 76.5 °F 67.6 °F 30.07 in NE 1.0 mph 1.2 mph 74 % 0.00 in
17:29 76.4 °F 67.9 °F 30.07 in ENE 0.5 mph 2.3 mph 75 % 0.00 in
17:34 76.2 °F 67.3 °F 30.07 in NE 0.4 mph 3.5 mph 74 % 0.00 in
17:39 76.2 °F 67.7 °F 30.07 in ENE 2.1 mph 3.5 mph 75 % 0.00 in
17:49 76.0 °F 68.3 °F 30.06 in Calm     77 % 0.00 in
17:54 75.9 °F 68.2 °F 30.06 in Calm     77 % 0.00 in
17:59 75.8 °F 68.1 °F 30.06 in Calm     77 % 0.00 in
18:04 75.7 °F 68.0 °F 30.06 in Calm     77 % 0.00 in
18:09 75.7 °F 68.4 °F 30.07 in Calm     78 % 0.00 in
18:15 75.6 °F 68.3 °F 30.07 in Calm     78 % 0.00 in
18:20 75.4 °F 68.1 °F 30.07 in Calm     78 % 0.00 in
18:25 75.3 °F 68.3 °F 30.07 in Calm     79 % 0.00 in
18:30 75.1 °F 68.1 °F 30.07 in Calm     79 % 0.00 in
18:35 74.9 °F 68.3 °F 30.07 in Calm     80 % 0.00 in
18:40 74.7 °F 68.1 °F 30.07 in Calm     80 % 0.00 in
18:45 74.5 °F 68.3 °F 30.07 in Calm     81 % 0.00 in
18:50 74.2 °F 68.3 °F 30.06 in Calm     82 % 0.00 in
18:55 73.9 °F 68.1 °F 30.07 in Calm     82 % 0.00 in
19:00 73.7 °F 67.9 °F 30.07 in Calm     82 % 0.00 in
19:05 73.3 °F 67.8 °F 30.07 in Calm     83 % 0.00 in
19:10 73.0 °F 67.5 °F 30.07 in Calm     83 % 0.00 in
19:16 72.6 °F 67.2 °F 30.07 in Calm     83 % 0.00 in
19:21 72.4 °F 66.9 °F 30.07 in Calm     83 % 0.00 in
19:26 72.1 °F 66.6 °F 30.07 in Calm     83 % 0.00 in
19:31 71.7 °F 65.9 °F 30.07 in Calm     82 % 0.00 in
19:36 71.4 °F 65.6 °F 30.08 in Calm     82 % 0.00 in
19:41 71.0 °F 64.5 °F 30.08 in Calm     80 % 0.00 in
19:46 70.6 °F 63.4 °F 30.08 in Calm     78 % 0.00 in
19:51 70.4 °F 62.8 °F 30.08 in Calm     77 % 0.00 in
19:56 70.0 °F 60.9 °F 30.08 in Calm   1.0 mph 73 % 0.00 in
20:01 69.6 °F 58.6 °F 30.08 in ENE 0.1 mph 1.2 mph 68 % 0.00 in
20:06 69.4 °F 58.8 °F 30.08 in Calm     69 % 0.00 in
20:11 69.2 °F 59.0 °F 30.08 in Calm     70 % 0.00 in
20:16 69.0 °F 58.8 °F 30.08 in Calm     70 % 0.00 in
20:21 68.8 °F 58.6 °F 30.08 in Calm     70 % 0.00 in
20:26 68.5 °F 58.3 °F 30.08 in Calm     70 % 0.00 in
20:31 68.2 °F 58.0 °F 30.08 in Calm     70 % 0.00 in
20:36 68.0 °F 57.4 °F 30.09 in Calm     69 % 0.00 in
20:41 67.7 °F 57.6 °F 30.09 in Calm     70 % 0.00 in
20:47 67.5 °F 57.4 °F 30.09 in Calm     70 % 0.00 in
20:52 67.2 °F 57.5 °F 30.08 in Calm     71 % 0.00 in
20:57 67.0 °F 57.7 °F 30.08 in Calm     72 % 0.00 in
21:02 66.8 °F 57.5 °F 30.08 in Calm     72 % 0.00 in
21:07 66.5 °F 57.6 °F 30.08 in Calm     73 % 0.00 in
21:12 66.3 °F 57.8 °F 30.08 in Calm     74 % 0.00 in
21:17 66.0 °F 57.8 °F 30.08 in Calm     75 % 0.00 in
21:22 65.8 °F 57.3 °F 30.07 in Calm   1.2 mph 74 % 0.00 in
21:27 65.6 °F 57.5 °F 30.07 in Calm     75 % 0.00 in
21:32 65.3 °F 56.4 °F 30.07 in Calm     73 % 0.00 in
21:38 65.1 °F 55.8 °F 30.07 in Calm   1.0 mph 72 % 0.00 in
21:43 64.9 °F 55.7 °F 30.07 in Calm     72 % 0.00 in
21:48 64.7 °F 55.5 °F 30.07 in ENE 0.7 mph 2.3 mph 72 % 0.00 in
21:53 64.5 °F 55.3 °F 30.07 in East 1.2 mph 2.3 mph 72 % 0.00 in
21:58 64.4 °F 55.2 °F 30.07 in East 1.0 mph 2.3 mph 72 % 0.00 in
22:03 64.3 °F 55.1 °F 30.07 in ESE 0.6 mph 2.3 mph 72 % 0.00 in
22:08 64.1 °F 54.5 °F 30.07 in ESE 0.7 mph 3.5 mph 71 % 0.00 in
22:13 64.1 °F 54.9 °F 30.07 in ESE 0.4 mph 2.3 mph 72 % 0.00 in
22:18 64.0 °F 54.4 °F 30.07 in SE 0.3 mph 1.2 mph 71 % 0.00 in
22:23 64.1 °F 54.5 °F 30.07 in SE 0.6 mph 2.3 mph 71 % 0.00 in
22:28 64.1 °F 54.9 °F 30.07 in SE 0.2 mph 1.2 mph 72 % 0.00 in
22:33 64.0 °F 54.8 °F 30.07 in Calm     72 % 0.00 in
22:39 64.0 °F 55.2 °F 30.07 in Calm     73 % 0.00 in
22:44 64.0 °F 55.2 °F 30.06 in Calm     73 % 0.00 in
22:49 64.0 °F 55.2 °F 30.06 in Calm     73 % 0.00 in
22:54 63.9 °F 55.1 °F 30.06 in SE 0.1 mph 1.2 mph 73 % 0.00 in
22:59 63.8 °F 55.4 °F 30.06 in Calm   1.2 mph 74 % 0.00 in
23:04 63.7 °F 55.6 °F 30.06 in SE 0.3 mph 2.3 mph 75 % 0.00 in
23:09 63.6 °F 55.9 °F 30.06 in Calm     76 % 0.00 in
23:14 63.5 °F 55.8 °F 30.06 in Calm   1.2 mph 76 % 0.00 in
23:19 63.4 °F 56.1 °F 30.06 in SE 0.6 mph 2.3 mph 77 % 0.00 in
23:24 63.4 °F 56.1 °F 30.06 in SE 0.3 mph 1.2 mph 77 % 0.00 in
23:30 63.3 °F 56.3 °F 30.06 in Calm   1.2 mph 78 % 0.00 in
23:35 63.2 °F 56.2 °F 30.06 in Calm     78 % 0.00 in
23:40 63.1 °F 56.1 °F 30.06 in Calm     78 % 0.00 in
23:45 63.0 °F 56.4 °F 30.06 in Calm     79 % 0.00 in
23:50 62.9 °F 56.3 °F 30.05 in Calm     79 % 0.00 in
23:55 62.9 °F 56.3 °F 30.05 in Calm     79 % 0.00 in
Crab Meadow Weather
Compliments of Weather Underground - 2.75 mb

Script developed by  Jim McMurry - jmcmurry@mwt.net Adapted for the template by  Wim van der Kuil - Leuven-Template.eu

Extremes: The greatest annual rainfall in the United States was 184.56 inches at Wynooches, Oxbow, Washington in 1931.